sensor_id;sensor_type;location;lat;lon;timestamp;P1;durP1;ratioP1;P2;durP2;ratioP2
1839;SDS011;920;48.944;9.148;2022-08-04T00:00:28;2.60;;;2.10;;
1839;SDS011;920;48.944;9.148;2022-08-04T00:02:58;2.67;;;2.20;;
1839;SDS011;920;48.944;9.148;2022-08-04T00:05:34;5.10;;;2.77;;
1839;SDS011;920;48.944;9.148;2022-08-04T00:08:21;2.33;;;1.97;;
1839;SDS011;920;48.944;9.148;2022-08-04T00:10:57;2.10;;;1.80;;
1839;SDS011;920;48.944;9.148;2022-08-04T00:13:25;2.30;;;2.00;;
1839;SDS011;920;48.944;9.148;2022-08-04T00:15:53;3.97;;;2.50;;
1839;SDS011;920;48.944;9.148;2022-08-04T00:18:25;2.93;;;2.10;;
1839;SDS011;920;48.944;9.148;2022-08-04T00:20:53;3.87;;;2.30;;
1839;SDS011;920;48.944;9.148;2022-08-04T00:23:22;3.00;;;2.40;;
1839;SDS011;920;48.944;9.148;2022-08-04T00:25:49;3.00;;;1.90;;
1839;SDS011;920;48.944;9.148;2022-08-04T00:28:18;2.50;;;2.10;;
1839;SDS011;920;48.944;9.148;2022-08-04T00:30:45;2.93;;;2.17;;
1839;SDS011;920;48.944;9.148;2022-08-04T00:33:12;3.53;;;2.17;;
1839;SDS011;920;48.944;9.148;2022-08-04T00:35:39;4.93;;;2.30;;
1839;SDS011;920;48.944;9.148;2022-08-04T00:38:06;2.50;;;2.30;;
1839;SDS011;920;48.944;9.148;2022-08-04T00:40:35;2.30;;;2.10;;
1839;SDS011;920;48.944;9.148;2022-08-04T00:43:09;3.10;;;2.07;;
1839;SDS011;920;48.944;9.148;2022-08-04T00:45:59;3.40;;;2.13;;
1839;SDS011;920;48.944;9.148;2022-08-04T00:48:46;5.13;;;2.07;;
1839;SDS011;920;48.944;9.148;2022-08-04T00:51:27;2.30;;;2.10;;
1839;SDS011;920;48.944;9.148;2022-08-04T00:54:00;2.50;;;2.27;;
1839;SDS011;920;48.944;9.148;2022-08-04T00:59:29;5.03;;;1.90;;
1839;SDS011;920;48.944;9.148;2022-08-04T01:02:09;2.37;;;2.17;;
1839;SDS011;920;48.944;9.148;2022-08-04T01:04:43;2.50;;;2.30;;
1839;SDS011;920;48.944;9.148;2022-08-04T01:07:16;3.43;;;2.30;;
1839;SDS011;920;48.944;9.148;2022-08-04T01:09:50;2.40;;;1.80;;
1839;SDS011;920;48.944;9.148;2022-08-04T01:12:26;2.10;;;1.90;;
1839;SDS011;920;48.944;9.148;2022-08-04T01:15:09;2.73;;;2.07;;
1839;SDS011;920;48.944;9.148;2022-08-04T01:17:52;2.40;;;2.00;;
1839;SDS011;920;48.944;9.148;2022-08-04T01:20:25;2.40;;;2.20;;
1839;SDS011;920;48.944;9.148;2022-08-04T01:23:16;2.70;;;2.27;;
1839;SDS011;920;48.944;9.148;2022-08-04T01:29:00;2.83;;;2.20;;
1839;SDS011;920;48.944;9.148;2022-08-04T01:31:30;2.40;;;2.20;;
1839;SDS011;920;48.944;9.148;2022-08-04T01:34:01;2.37;;;2.17;;
1839;SDS011;920;48.944;9.148;2022-08-04T01:36:31;2.53;;;2.33;;
1839;SDS011;920;48.944;9.148;2022-08-04T01:38:59;3.63;;;2.37;;
1839;SDS011;920;48.944;9.148;2022-08-04T01:41:47;2.10;;;1.90;;
1839;SDS011;920;48.944;9.148;2022-08-04T01:44:16;2.27;;;1.83;;
1839;SDS011;920;48.944;9.148;2022-08-04T01:46:45;2.40;;;2.20;;
1839;SDS011;920;48.944;9.148;2022-08-04T01:49:12;3.10;;;2.20;;
1839;SDS011;920;48.944;9.148;2022-08-04T01:51:39;4.23;;;2.23;;
1839;SDS011;920;48.944;9.148;2022-08-04T01:54:06;2.50;;;2.30;;
1839;SDS011;920;48.944;9.148;2022-08-04T01:56:33;3.03;;;1.80;;
1839;SDS011;920;48.944;9.148;2022-08-04T01:59:00;2.30;;;2.10;;
1839;SDS011;920;48.944;9.148;2022-08-04T02:01:31;2.73;;;2.10;;
1839;SDS011;920;48.944;9.148;2022-08-04T02:04:01;2.50;;;2.30;;
1839;SDS011;920;48.944;9.148;2022-08-04T02:06:30;2.80;;;2.30;;
1839;SDS011;920;48.944;9.148;2022-08-04T02:09:02;2.27;;;2.07;;
1839;SDS011;920;48.944;9.148;2022-08-04T02:11:30;2.50;;;2.30;;
1839;SDS011;920;48.944;9.148;2022-08-04T02:13:58;2.20;;;2.00;;
1839;SDS011;920;48.944;9.148;2022-08-04T02:16:31;2.00;;;1.80;;
1839;SDS011;920;48.944;9.148;2022-08-04T02:19:04;3.23;;;2.00;;
1839;SDS011;920;48.944;9.148;2022-08-04T02:21:35;2.20;;;2.00;;
1839;SDS011;920;48.944;9.148;2022-08-04T02:24:05;2.40;;;2.10;;
1839;SDS011;920;48.944;9.148;2022-08-04T02:26:34;1.97;;;1.77;;
1839;SDS011;920;48.944;9.148;2022-08-04T02:29:03;2.50;;;2.10;;
1839;SDS011;920;48.944;9.148;2022-08-04T02:31:41;2.50;;;2.27;;
1839;SDS011;920;48.944;9.148;2022-08-04T02:34:11;2.30;;;2.10;;
1839;SDS011;920;48.944;9.148;2022-08-04T02:36:42;4.00;;;2.40;;
1839;SDS011;920;48.944;9.148;2022-08-04T02:39:10;2.30;;;2.00;;
1839;SDS011;920;48.944;9.148;2022-08-04T02:41:38;2.50;;;2.23;;
1839;SDS011;920;48.944;9.148;2022-08-04T02:44:06;3.57;;;2.40;;
1839;SDS011;920;48.944;9.148;2022-08-04T02:46:34;2.57;;;2.37;;
1839;SDS011;920;48.944;9.148;2022-08-04T02:49:04;2.50;;;2.20;;
1839;SDS011;920;48.944;9.148;2022-08-04T02:51:32;2.70;;;2.50;;
1839;SDS011;920;48.944;9.148;2022-08-04T02:54:02;3.20;;;2.50;;
1839;SDS011;920;48.944;9.148;2022-08-04T02:56:30;2.80;;;2.47;;
1839;SDS011;920;48.944;9.148;2022-08-04T02:58:58;2.70;;;2.20;;
1839;SDS011;920;48.944;9.148;2022-08-04T03:01:26;2.50;;;2.10;;
1839;SDS011;920;48.944;9.148;2022-08-04T03:04:07;3.37;;;2.30;;
1839;SDS011;920;48.944;9.148;2022-08-04T03:22:05;4.03;;;1.90;;
1839;SDS011;920;48.944;9.148;2022-08-04T03:27:55;2.50;;;2.30;;
1839;SDS011;920;48.944;9.148;2022-08-04T03:30:42;3.43;;;2.50;;
1839;SDS011;920;48.944;9.148;2022-08-04T03:39:27;3.10;;;2.33;;
1839;SDS011;920;48.944;9.148;2022-08-04T03:42:21;2.30;;;1.90;;
1839;SDS011;920;48.944;9.148;2022-08-04T03:45:22;3.00;;;2.20;;
1839;SDS011;920;48.944;9.148;2022-08-04T03:48:21;3.87;;;2.43;;
1839;SDS011;920;48.944;9.148;2022-08-04T03:51:01;5.27;;;2.50;;
1839;SDS011;920;48.944;9.148;2022-08-04T03:53:57;2.50;;;2.30;;
1839;SDS011;920;48.944;9.148;2022-08-04T03:59:42;2.30;;;1.90;;
1839;SDS011;920;48.944;9.148;2022-08-04T04:05:29;2.50;;;2.20;;
1839;SDS011;920;48.944;9.148;2022-08-04T04:08:24;2.77;;;2.20;;
1839;SDS011;920;48.944;9.148;2022-08-04T04:11:22;2.70;;;2.30;;
1839;SDS011;920;48.944;9.148;2022-08-04T04:14:08;2.87;;;2.10;;
1839;SDS011;920;48.944;9.148;2022-08-04T04:19:49;3.07;;;2.30;;
1839;SDS011;920;48.944;9.148;2022-08-04T04:22:23;3.10;;;2.57;;
1839;SDS011;920;48.944;9.148;2022-08-04T04:25:04;2.70;;;2.23;;
1839;SDS011;920;48.944;9.148;2022-08-04T04:27:42;3.00;;;2.17;;
1839;SDS011;920;48.944;9.148;2022-08-04T04:30:21;3.93;;;2.57;;
1839;SDS011;920;48.944;9.148;2022-08-04T04:32:56;2.90;;;2.60;;
1839;SDS011;920;48.944;9.148;2022-08-04T04:35:34;3.40;;;2.47;;
1839;SDS011;920;48.944;9.148;2022-08-04T04:41:01;3.03;;;2.73;;
1839;SDS011;920;48.944;9.148;2022-08-04T04:43:50;5.17;;;2.47;;
1839;SDS011;920;48.944;9.148;2022-08-04T04:46:29;3.43;;;2.20;;
1839;SDS011;920;48.944;9.148;2022-08-04T04:49:02;3.00;;;2.70;;
1839;SDS011;920;48.944;9.148;2022-08-04T04:51:36;3.70;;;2.63;;
1839;SDS011;920;48.944;9.148;2022-08-04T04:54:10;5.20;;;2.87;;
1839;SDS011;920;48.944;9.148;2022-08-04T04:56:40;3.60;;;2.60;;
1839;SDS011;920;48.944;9.148;2022-08-04T04:59:10;3.37;;;2.70;;
1839;SDS011;920;48.944;9.148;2022-08-04T05:04:44;3.30;;;2.77;;
1839;SDS011;920;48.944;9.148;2022-08-04T05:07:27;2.70;;;2.50;;
1839;SDS011;920;48.944;9.148;2022-08-04T05:10:06;3.13;;;2.30;;
1839;SDS011;920;48.944;9.148;2022-08-04T05:12:50;4.53;;;2.80;;
1839;SDS011;920;48.944;9.148;2022-08-04T05:15:21;3.67;;;2.70;;
1839;SDS011;920;48.944;9.148;2022-08-04T05:17:54;4.20;;;2.30;;
1839;SDS011;920;48.944;9.148;2022-08-04T05:20:23;3.10;;;2.80;;
1839;SDS011;920;48.944;9.148;2022-08-04T05:22:53;4.37;;;2.83;;
1839;SDS011;920;48.944;9.148;2022-08-04T05:25:23;4.13;;;2.60;;
1839;SDS011;920;48.944;9.148;2022-08-04T05:27:55;3.30;;;2.43;;
1839;SDS011;920;48.944;9.148;2022-08-04T05:30:23;4.77;;;2.83;;
1839;SDS011;920;48.944;9.148;2022-08-04T05:32:54;3.00;;;2.60;;
1839;SDS011;920;48.944;9.148;2022-08-04T05:35:26;3.10;;;2.70;;
1839;SDS011;920;48.944;9.148;2022-08-04T05:37:55;3.23;;;2.90;;
1839;SDS011;920;48.944;9.148;2022-08-04T05:40:22;3.30;;;2.70;;
1839;SDS011;920;48.944;9.148;2022-08-04T05:42:51;3.63;;;2.50;;
1839;SDS011;920;48.944;9.148;2022-08-04T05:45:20;3.90;;;3.37;;
1839;SDS011;920;48.944;9.148;2022-08-04T05:47:47;4.83;;;3.30;;
1839;SDS011;920;48.944;9.148;2022-08-04T05:50:16;6.57;;;2.80;;
1839;SDS011;920;48.944;9.148;2022-08-04T05:52:43;3.23;;;2.80;;
1839;SDS011;920;48.944;9.148;2022-08-04T05:55:10;3.40;;;2.80;;
1839;SDS011;920;48.944;9.148;2022-08-04T05:57:38;5.63;;;3.30;;
1839;SDS011;920;48.944;9.148;2022-08-04T06:00:06;3.87;;;2.73;;
1839;SDS011;920;48.944;9.148;2022-08-04T06:02:33;3.10;;;2.60;;
1839;SDS011;920;48.944;9.148;2022-08-04T06:05:00;2.77;;;2.57;;
1839;SDS011;920;48.944;9.148;2022-08-04T06:07:31;7.00;;;2.77;;
1839;SDS011;920;48.944;9.148;2022-08-04T06:09:57;2.90;;;2.60;;
1839;SDS011;920;48.944;9.148;2022-08-04T06:12:26;4.73;;;2.70;;
1839;SDS011;920;48.944;9.148;2022-08-04T06:14:56;3.23;;;2.43;;
1839;SDS011;920;48.944;9.148;2022-08-04T06:17:27;2.60;;;2.27;;
1839;SDS011;920;48.944;9.148;2022-08-04T06:19:56;3.63;;;2.13;;
1839;SDS011;920;48.944;9.148;2022-08-04T06:22:25;4.40;;;2.60;;
1839;SDS011;920;48.944;9.148;2022-08-04T06:24:54;2.50;;;2.20;;
1839;SDS011;920;48.944;9.148;2022-08-04T06:27:22;3.33;;;2.50;;
1839;SDS011;920;48.944;9.148;2022-08-04T06:29:49;3.47;;;2.47;;
1839;SDS011;920;48.944;9.148;2022-08-04T06:32:16;4.00;;;2.47;;
1839;SDS011;920;48.944;9.148;2022-08-04T06:34:52;3.17;;;2.60;;
1839;SDS011;920;48.944;9.148;2022-08-04T06:37:20;3.00;;;2.57;;
1839;SDS011;920;48.944;9.148;2022-08-04T06:39:48;2.87;;;2.10;;
1839;SDS011;920;48.944;9.148;2022-08-04T06:42:17;4.90;;;2.43;;
1839;SDS011;920;48.944;9.148;2022-08-04T06:44:47;4.47;;;2.67;;
1839;SDS011;920;48.944;9.148;2022-08-04T06:47:16;4.83;;;2.20;;
1839;SDS011;920;48.944;9.148;2022-08-04T06:49:44;3.33;;;2.20;;
1839;SDS011;920;48.944;9.148;2022-08-04T06:52:11;2.70;;;2.20;;
1839;SDS011;920;48.944;9.148;2022-08-04T06:54:41;3.23;;;2.07;;
1839;SDS011;920;48.944;9.148;2022-08-04T06:57:08;2.60;;;2.00;;
1839;SDS011;920;48.944;9.148;2022-08-04T06:59:39;2.67;;;2.07;;
1839;SDS011;920;48.944;9.148;2022-08-04T07:02:06;3.70;;;2.20;;
1839;SDS011;920;48.944;9.148;2022-08-04T07:04:36;2.40;;;2.13;;
1839;SDS011;920;48.944;9.148;2022-08-04T07:07:03;3.87;;;2.30;;
1839;SDS011;920;48.944;9.148;2022-08-04T07:09:30;2.90;;;2.03;;
1839;SDS011;920;48.944;9.148;2022-08-04T07:11:57;2.33;;;1.97;;
1839;SDS011;920;48.944;9.148;2022-08-04T07:14:24;2.53;;;2.20;;
1839;SDS011;920;48.944;9.148;2022-08-04T07:16:53;3.27;;;1.60;;
1839;SDS011;920;48.944;9.148;2022-08-04T07:19:19;2.87;;;2.10;;
1839;SDS011;920;48.944;9.148;2022-08-04T07:21:46;3.53;;;1.97;;
1839;SDS011;920;48.944;9.148;2022-08-04T07:24:13;1.77;;;1.63;;
1839;SDS011;920;48.944;9.148;2022-08-04T07:26:41;2.37;;;1.97;;
1839;SDS011;920;48.944;9.148;2022-08-04T07:29:08;2.80;;;2.20;;
1839;SDS011;920;48.944;9.148;2022-08-04T07:31:36;5.00;;;1.90;;
1839;SDS011;920;48.944;9.148;2022-08-04T07:34:04;2.60;;;1.90;;
1839;SDS011;920;48.944;9.148;2022-08-04T07:36:32;2.67;;;1.80;;
1839;SDS011;920;48.944;9.148;2022-08-04T07:38:58;2.60;;;1.70;;
1839;SDS011;920;48.944;9.148;2022-08-04T07:41:25;2.10;;;1.80;;
1839;SDS011;920;48.944;9.148;2022-08-04T07:43:52;2.00;;;1.73;;
1839;SDS011;920;48.944;9.148;2022-08-04T07:46:19;2.10;;;1.80;;
1839;SDS011;920;48.944;9.148;2022-08-04T07:48:46;2.00;;;1.70;;
1839;SDS011;920;48.944;9.148;2022-08-04T07:51:14;2.10;;;1.60;;
1839;SDS011;920;48.944;9.148;2022-08-04T07:53:41;2.03;;;1.77;;
1839;SDS011;920;48.944;9.148;2022-08-04T07:56:09;2.20;;;1.77;;
1839;SDS011;920;48.944;9.148;2022-08-04T07:58:36;2.10;;;1.60;;
1839;SDS011;920;48.944;9.148;2022-08-04T08:01:03;2.50;;;1.77;;
1839;SDS011;920;48.944;9.148;2022-08-04T08:03:29;2.43;;;1.60;;
1839;SDS011;920;48.944;9.148;2022-08-04T08:05:56;5.23;;;1.90;;
1839;SDS011;920;48.944;9.148;2022-08-04T08:08:24;2.30;;;1.80;;
1839;SDS011;920;48.944;9.148;2022-08-04T08:10:51;1.90;;;1.70;;
1839;SDS011;920;48.944;9.148;2022-08-04T08:13:19;2.23;;;1.97;;
1839;SDS011;920;48.944;9.148;2022-08-04T08:15:46;2.10;;;1.80;;
1839;SDS011;920;48.944;9.148;2022-08-04T08:18:13;4.93;;;1.80;;
1839;SDS011;920;48.944;9.148;2022-08-04T08:20:42;3.63;;;1.80;;
1839;SDS011;920;48.944;9.148;2022-08-04T08:23:10;1.90;;;1.60;;
1839;SDS011;920;48.944;9.148;2022-08-04T08:25:38;4.90;;;1.80;;
1839;SDS011;920;48.944;9.148;2022-08-04T08:28:05;4.20;;;2.00;;
1839;SDS011;920;48.944;9.148;2022-08-04T08:30:32;1.83;;;1.60;;
1839;SDS011;920;48.944;9.148;2022-08-04T08:32:59;1.90;;;1.57;;
1839;SDS011;920;48.944;9.148;2022-08-04T08:35:27;2.07;;;1.87;;
1839;SDS011;920;48.944;9.148;2022-08-04T08:37:56;1.70;;;1.50;;
1839;SDS011;920;48.944;9.148;2022-08-04T08:40:27;2.87;;;1.70;;
1839;SDS011;920;48.944;9.148;2022-08-04T08:43:14;2.00;;;1.70;;
1839;SDS011;920;48.944;9.148;2022-08-04T08:48:57;1.93;;;1.73;;
1839;SDS011;920;48.944;9.148;2022-08-04T08:51:34;2.20;;;2.00;;
1839;SDS011;920;48.944;9.148;2022-08-04T08:54:20;2.10;;;1.90;;
1839;SDS011;920;48.944;9.148;2022-08-04T08:56:57;1.90;;;1.70;;
1839;SDS011;920;48.944;9.148;2022-08-04T08:59:42;3.33;;;1.70;;
1839;SDS011;920;48.944;9.148;2022-08-04T09:02:25;2.63;;;2.07;;
1839;SDS011;920;48.944;9.148;2022-08-04T09:05:06;2.80;;;2.03;;
1839;SDS011;920;48.944;9.148;2022-08-04T09:07:45;2.50;;;1.90;;
1839;SDS011;920;48.944;9.148;2022-08-04T09:10:30;3.53;;;2.17;;
1839;SDS011;920;48.944;9.148;2022-08-04T09:13:03;2.77;;;2.10;;
1839;SDS011;920;48.944;9.148;2022-08-04T09:15:33;2.07;;;1.80;;
1839;SDS011;920;48.944;9.148;2022-08-04T09:18:04;2.75;;;1.92;;
1839;SDS011;920;48.944;9.148;2022-08-04T09:20:36;1.95;;;1.75;;
1839;SDS011;920;48.944;9.148;2022-08-04T09:23:07;2.93;;;2.20;;
1839;SDS011;920;48.944;9.148;2022-08-04T09:25:41;3.30;;;2.20;;
1839;SDS011;920;48.944;9.148;2022-08-04T09:28:17;2.85;;;2.28;;
1839;SDS011;920;48.944;9.148;2022-08-04T09:30:47;2.17;;;1.97;;
1839;SDS011;920;48.944;9.148;2022-08-04T09:33:22;2.38;;;2.17;;
1839;SDS011;920;48.944;9.148;2022-08-04T09:35:56;2.17;;;1.97;;
1839;SDS011;920;48.944;9.148;2022-08-04T09:38:26;2.30;;;1.90;;
1839;SDS011;920;48.944;9.148;2022-08-04T09:41:01;5.23;;;1.97;;
1839;SDS011;920;48.944;9.148;2022-08-04T09:43:34;3.93;;;2.03;;
1839;SDS011;920;48.944;9.148;2022-08-04T09:46:07;4.30;;;2.40;;
1839;SDS011;920;48.944;9.148;2022-08-04T09:48:41;4.27;;;3.87;;
1839;SDS011;920;48.944;9.148;2022-08-04T09:51:13;4.13;;;3.83;;
1839;SDS011;920;48.944;9.148;2022-08-04T09:53:52;3.22;;;2.88;;
1839;SDS011;920;48.944;9.148;2022-08-04T09:56:22;3.00;;;2.70;;
1839;SDS011;920;48.944;9.148;2022-08-04T09:58:53;2.40;;;2.20;;
1839;SDS011;920;48.944;9.148;2022-08-04T10:01:27;2.53;;;2.20;;
1839;SDS011;920;48.944;9.148;2022-08-04T10:03:58;2.90;;;2.22;;
1839;SDS011;920;48.944;9.148;2022-08-04T10:06:35;2.20;;;2.00;;
1839;SDS011;920;48.944;9.148;2022-08-04T10:09:11;3.00;;;2.27;;
1839;SDS011;920;48.944;9.148;2022-08-04T10:12:02;2.80;;;2.47;;
1839;SDS011;920;48.944;9.148;2022-08-04T10:14:39;2.43;;;1.80;;
1839;SDS011;920;48.944;9.148;2022-08-04T10:17:14;2.37;;;2.10;;
1839;SDS011;920;48.944;9.148;2022-08-04T10:19:49;2.33;;;2.13;;
1839;SDS011;920;48.944;9.148;2022-08-04T10:22:30;2.50;;;2.20;;
1839;SDS011;920;48.944;9.148;2022-08-04T10:25:02;2.30;;;2.10;;
1839;SDS011;920;48.944;9.148;2022-08-04T10:27:35;2.70;;;2.50;;
1839;SDS011;920;48.944;9.148;2022-08-04T10:30:04;3.57;;;2.50;;
1839;SDS011;920;48.944;9.148;2022-08-04T10:32:41;9.30;;;2.43;;
1839;SDS011;920;48.944;9.148;2022-08-04T10:35:10;2.90;;;2.10;;
1839;SDS011;920;48.944;9.148;2022-08-04T10:37:41;2.40;;;2.20;;
1839;SDS011;920;48.944;9.148;2022-08-04T10:40:11;3.17;;;1.80;;
1839;SDS011;920;48.944;9.148;2022-08-04T10:42:58;2.43;;;2.23;;
1839;SDS011;920;48.944;9.148;2022-08-04T10:45:30;2.60;;;2.40;;
1839;SDS011;920;48.944;9.148;2022-08-04T10:48:05;4.27;;;2.50;;
1839;SDS011;920;48.944;9.148;2022-08-04T10:50:33;3.10;;;2.33;;
1839;SDS011;920;48.944;9.148;2022-08-04T10:53:02;2.20;;;1.87;;
1839;SDS011;920;48.944;9.148;2022-08-04T10:55:32;2.70;;;2.50;;
1839;SDS011;920;48.944;9.148;2022-08-04T10:58:03;4.00;;;2.23;;
1839;SDS011;920;48.944;9.148;2022-08-04T11:00:32;2.50;;;2.30;;
1839;SDS011;920;48.944;9.148;2022-08-04T11:03:06;2.57;;;2.33;;
1839;SDS011;920;48.944;9.148;2022-08-04T11:05:35;3.07;;;2.10;;
1839;SDS011;920;48.944;9.148;2022-08-04T11:08:10;2.20;;;2.00;;
1839;SDS011;920;48.944;9.148;2022-08-04T11:10:42;3.00;;;2.40;;
1839;SDS011;920;48.944;9.148;2022-08-04T11:13:12;2.33;;;1.97;;
1839;SDS011;920;48.944;9.148;2022-08-04T11:15:44;8.73;;;2.20;;
1839;SDS011;920;48.944;9.148;2022-08-04T11:18:17;2.50;;;2.03;;
1839;SDS011;920;48.944;9.148;2022-08-04T11:20:49;2.00;;;1.70;;
1839;SDS011;920;48.944;9.148;2022-08-04T11:23:18;3.10;;;1.90;;
1839;SDS011;920;48.944;9.148;2022-08-04T11:25:50;2.50;;;1.90;;
1839;SDS011;920;48.944;9.148;2022-08-04T11:28:22;2.10;;;1.90;;
1839;SDS011;920;48.944;9.148;2022-08-04T11:30:56;4.87;;;1.90;;
1839;SDS011;920;48.944;9.148;2022-08-04T11:33:30;2.47;;;2.07;;
1839;SDS011;920;48.944;9.148;2022-08-04T11:36:02;2.10;;;1.90;;
1839;SDS011;920;48.944;9.148;2022-08-04T11:38:36;2.40;;;1.83;;
1839;SDS011;920;48.944;9.148;2022-08-04T11:41:11;2.30;;;2.10;;
1839;SDS011;920;48.944;9.148;2022-08-04T11:43:44;2.00;;;1.80;;
1839;SDS011;920;48.944;9.148;2022-08-04T11:46:17;2.37;;;2.13;;
1839;SDS011;920;48.944;9.148;2022-08-04T11:48:55;2.50;;;2.20;;
1839;SDS011;920;48.944;9.148;2022-08-04T11:51:26;3.13;;;1.93;;
1839;SDS011;920;48.944;9.148;2022-08-04T11:53:54;4.57;;;2.40;;
1839;SDS011;920;48.944;9.148;2022-08-04T11:56:21;2.33;;;1.97;;
1839;SDS011;920;48.944;9.148;2022-08-04T11:58:48;3.00;;;2.10;;
1839;SDS011;920;48.944;9.148;2022-08-04T12:01:16;2.40;;;2.20;;
1839;SDS011;920;48.944;9.148;2022-08-04T12:03:45;2.40;;;2.20;;
1839;SDS011;920;48.944;9.148;2022-08-04T12:06:20;2.83;;;2.27;;
1839;SDS011;920;48.944;9.148;2022-08-04T12:08:59;2.70;;;2.40;;
1839;SDS011;920;48.944;9.148;2022-08-04T12:11:34;3.07;;;2.33;;
1839;SDS011;920;48.944;9.148;2022-08-04T12:14:09;2.55;;;2.35;;
1839;SDS011;920;48.944;9.148;2022-08-04T12:16:41;3.33;;;2.58;;
1839;SDS011;920;48.944;9.148;2022-08-04T12:19:12;2.30;;;2.10;;
1839;SDS011;920;48.944;9.148;2022-08-04T12:21:47;2.83;;;2.43;;
1839;SDS011;920;48.944;9.148;2022-08-04T12:24:17;2.40;;;2.20;;
1839;SDS011;920;48.944;9.148;2022-08-04T12:26:47;3.15;;;2.35;;
1839;SDS011;920;48.944;9.148;2022-08-04T12:29:17;2.85;;;2.05;;
1839;SDS011;920;48.944;9.148;2022-08-04T12:31:47;2.67;;;2.27;;
1839;SDS011;920;48.944;9.148;2022-08-04T12:34:16;3.33;;;2.30;;
1839;SDS011;920;48.944;9.148;2022-08-04T12:36:50;2.20;;;2.00;;
1839;SDS011;920;48.944;9.148;2022-08-04T12:39:20;3.13;;;2.22;;
1839;SDS011;920;48.944;9.148;2022-08-04T12:41:51;2.40;;;2.15;;
1839;SDS011;920;48.944;9.148;2022-08-04T12:44:24;2.80;;;2.28;;
1839;SDS011;920;48.944;9.148;2022-08-04T12:46:59;2.20;;;2.00;;
1839;SDS011;920;48.944;9.148;2022-08-04T12:49:27;5.30;;;2.20;;
1839;SDS011;920;48.944;9.148;2022-08-04T12:51:55;2.42;;;2.22;;
1839;SDS011;920;48.944;9.148;2022-08-04T12:54:22;2.27;;;2.07;;
1839;SDS011;920;48.944;9.148;2022-08-04T12:56:51;2.47;;;2.10;;
1839;SDS011;920;48.944;9.148;2022-08-04T12:59:19;3.30;;;2.50;;
1839;SDS011;920;48.944;9.148;2022-08-04T13:01:46;2.60;;;2.40;;
1839;SDS011;920;48.944;9.148;2022-08-04T13:04:15;2.40;;;2.10;;
1839;SDS011;920;48.944;9.148;2022-08-04T13:06:51;2.38;;;2.10;;
1839;SDS011;920;48.944;9.148;2022-08-04T13:09:20;2.83;;;2.20;;
1839;SDS011;920;48.944;9.148;2022-08-04T13:11:49;2.50;;;2.30;;
1839;SDS011;920;48.944;9.148;2022-08-04T13:14:19;2.47;;;2.28;;
1839;SDS011;920;48.944;9.148;2022-08-04T13:16:46;4.13;;;2.30;;
1839;SDS011;920;48.944;9.148;2022-08-04T13:19:13;4.17;;;2.33;;
1839;SDS011;920;48.944;9.148;2022-08-04T13:21:41;3.72;;;2.30;;
1839;SDS011;920;48.944;9.148;2022-08-04T13:24:10;2.45;;;2.25;;
1839;SDS011;920;48.944;9.148;2022-08-04T13:26:50;2.10;;;1.88;;
1839;SDS011;920;48.944;9.148;2022-08-04T13:29:19;2.00;;;1.80;;
1839;SDS011;920;48.944;9.148;2022-08-04T13:31:47;2.83;;;2.20;;
1839;SDS011;920;48.944;9.148;2022-08-04T13:34:14;2.63;;;2.42;;
1839;SDS011;920;48.944;9.148;2022-08-04T13:36:41;2.40;;;2.15;;
1839;SDS011;920;48.944;9.148;2022-08-04T13:39:12;3.75;;;2.45;;
1839;SDS011;920;48.944;9.148;2022-08-04T13:41:42;3.03;;;2.20;;
1839;SDS011;920;48.944;9.148;2022-08-04T13:44:12;3.60;;;2.20;;
1839;SDS011;920;48.944;9.148;2022-08-04T13:46:43;3.33;;;2.50;;
1839;SDS011;920;48.944;9.148;2022-08-04T13:49:13;2.50;;;2.08;;
1839;SDS011;920;48.944;9.148;2022-08-04T13:51:45;2.88;;;2.67;;
1839;SDS011;920;48.944;9.148;2022-08-04T13:54:14;5.07;;;2.17;;
1839;SDS011;920;48.944;9.148;2022-08-04T13:56:43;2.45;;;2.00;;
1839;SDS011;920;48.944;9.148;2022-08-04T13:59:14;4.35;;;2.30;;
1839;SDS011;920;48.944;9.148;2022-08-04T14:01:44;2.70;;;2.50;;
1839;SDS011;920;48.944;9.148;2022-08-04T14:04:14;2.40;;;2.20;;
1839;SDS011;920;48.944;9.148;2022-08-04T14:06:44;2.00;;;1.80;;
1839;SDS011;920;48.944;9.148;2022-08-04T14:09:15;4.68;;;2.55;;
1839;SDS011;920;48.944;9.148;2022-08-04T14:11:43;2.20;;;2.00;;
1839;SDS011;920;48.944;9.148;2022-08-04T14:14:11;3.22;;;2.10;;
1839;SDS011;920;48.944;9.148;2022-08-04T14:16:53;2.53;;;2.33;;
1839;SDS011;920;48.944;9.148;2022-08-04T14:19:20;2.33;;;2.00;;
1839;SDS011;920;48.944;9.148;2022-08-04T14:21:47;2.30;;;2.10;;
1839;SDS011;920;48.944;9.148;2022-08-04T14:24:21;4.82;;;2.30;;
1839;SDS011;920;48.944;9.148;2022-08-04T14:26:48;2.60;;;2.40;;
1839;SDS011;920;48.944;9.148;2022-08-04T14:29:17;3.15;;;2.85;;
1839;SDS011;920;48.944;9.148;2022-08-04T14:31:46;2.90;;;2.60;;
1839;SDS011;920;48.944;9.148;2022-08-04T14:34:23;2.70;;;2.47;;
1839;SDS011;920;48.944;9.148;2022-08-04T14:36:50;4.10;;;3.13;;
1839;SDS011;920;48.944;9.148;2022-08-04T14:39:19;2.50;;;2.30;;
1839;SDS011;920;48.944;9.148;2022-08-04T14:42:02;2.40;;;2.20;;
1839;SDS011;920;48.944;9.148;2022-08-04T14:44:30;2.70;;;2.10;;
1839;SDS011;920;48.944;9.148;2022-08-04T14:46:57;2.63;;;2.10;;
1839;SDS011;920;48.944;9.148;2022-08-04T14:49:23;2.93;;;2.10;;
1839;SDS011;920;48.944;9.148;2022-08-04T14:51:51;2.53;;;2.10;;
1839;SDS011;920;48.944;9.148;2022-08-04T14:54:27;2.50;;;2.10;;
1839;SDS011;920;48.944;9.148;2022-08-04T14:56:56;3.00;;;2.10;;
1839;SDS011;920;48.944;9.148;2022-08-04T14:59:24;2.60;;;2.20;;
1839;SDS011;920;48.944;9.148;2022-08-04T15:01:52;3.07;;;2.20;;
1839;SDS011;920;48.944;9.148;2022-08-04T15:04:21;2.40;;;2.03;;
1839;SDS011;920;48.944;9.148;2022-08-04T15:06:48;2.10;;;1.83;;
1839;SDS011;920;48.944;9.148;2022-08-04T15:09:16;2.30;;;2.10;;
1839;SDS011;920;48.944;9.148;2022-08-04T15:11:43;2.53;;;2.27;;
1839;SDS011;920;48.944;9.148;2022-08-04T15:14:10;2.23;;;2.00;;
1839;SDS011;920;48.944;9.148;2022-08-04T15:16:37;2.70;;;2.07;;
1839;SDS011;920;48.944;9.148;2022-08-04T15:19:05;2.53;;;2.30;;
1839;SDS011;920;48.944;9.148;2022-08-04T15:21:32;2.60;;;2.37;;
1839;SDS011;920;48.944;9.148;2022-08-04T15:24:01;3.43;;;2.30;;
1839;SDS011;920;48.944;9.148;2022-08-04T15:26:31;2.53;;;2.33;;
1839;SDS011;920;48.944;9.148;2022-08-04T15:29:02;7.47;;;2.20;;
1839;SDS011;920;48.944;9.148;2022-08-04T15:31:35;3.03;;;2.00;;
1839;SDS011;920;48.944;9.148;2022-08-04T15:34:04;2.67;;;2.10;;
1839;SDS011;920;48.944;9.148;2022-08-04T15:36:36;3.00;;;2.33;;
1839;SDS011;920;48.944;9.148;2022-08-04T15:39:09;2.58;;;2.35;;
1839;SDS011;920;48.944;9.148;2022-08-04T15:41:43;2.77;;;2.37;;
1839;SDS011;920;48.944;9.148;2022-08-04T15:44:27;2.10;;;1.90;;
1839;SDS011;920;48.944;9.148;2022-08-04T15:47:16;2.40;;;2.20;;
1839;SDS011;920;48.944;9.148;2022-08-04T15:49:44;2.40;;;2.20;;
1839;SDS011;920;48.944;9.148;2022-08-04T15:52:12;2.20;;;2.00;;
1839;SDS011;920;48.944;9.148;2022-08-04T15:54:40;2.78;;;2.08;;
1839;SDS011;920;48.944;9.148;2022-08-04T15:57:09;3.50;;;2.20;;
1839;SDS011;920;48.944;9.148;2022-08-04T15:59:55;2.43;;;2.23;;
1839;SDS011;920;48.944;9.148;2022-08-04T16:05:31;2.27;;;2.07;;
1839;SDS011;920;48.944;9.148;2022-08-04T16:10:45;3.40;;;2.10;;
1839;SDS011;920;48.944;9.148;2022-08-04T16:13:13;2.37;;;2.13;;
1839;SDS011;920;48.944;9.148;2022-08-04T16:15:44;3.00;;;2.03;;
1839;SDS011;920;48.944;9.148;2022-08-04T16:21:06;2.97;;;2.70;;
1839;SDS011;920;48.944;9.148;2022-08-04T16:23:46;2.63;;;2.43;;
1839;SDS011;920;48.944;9.148;2022-08-04T16:32:06;2.60;;;2.40;;
1839;SDS011;920;48.944;9.148;2022-08-04T16:34:54;2.33;;;2.13;;
1839;SDS011;920;48.944;9.148;2022-08-04T16:37:29;2.73;;;2.53;;
1839;SDS011;920;48.944;9.148;2022-08-04T16:42:49;2.30;;;2.07;;
1839;SDS011;920;48.944;9.148;2022-08-04T16:45:16;3.37;;;2.50;;
1839;SDS011;920;48.944;9.148;2022-08-04T16:48:01;2.93;;;2.57;;
1839;SDS011;920;48.944;9.148;2022-08-04T16:50:32;2.40;;;2.20;;
1839;SDS011;920;48.944;9.148;2022-08-04T16:53:00;2.50;;;2.30;;
1839;SDS011;920;48.944;9.148;2022-08-04T16:55:35;4.17;;;2.20;;
1839;SDS011;920;48.944;9.148;2022-08-04T16:58:02;2.30;;;2.10;;
1839;SDS011;920;48.944;9.148;2022-08-04T17:00:30;2.35;;;2.15;;
1839;SDS011;920;48.944;9.148;2022-08-04T17:03:00;2.37;;;2.17;;
1839;SDS011;920;48.944;9.148;2022-08-04T17:05:27;3.28;;;2.08;;